sensor_id;sensor_type;location;lat;lon;timestamp;temperature;humidity
54680;DHT22;40578;53.178;5.846;2022-11-15T00:00:16;7.40;99.90
54680;DHT22;40578;53.178;5.846;2022-11-15T00:02:42;7.00;99.90
54680;DHT22;40578;53.178;5.846;2022-11-15T00:05:08;7.40;99.90
54680;DHT22;40578;53.178;5.846;2022-11-15T00:07:33;7.40;99.90
54680;DHT22;40578;53.178;5.846;2022-11-15T00:09:59;7.40;99.90
54680;DHT22;40578;53.178;5.846;2022-11-15T00:12:27;7.40;99.90
54680;DHT22;40578;53.178;5.846;2022-11-15T00:14:53;7.40;99.90
54680;DHT22;40578;53.178;5.846;2022-11-15T00:17:18;7.10;99.90
54680;DHT22;40578;53.178;5.846;2022-11-15T00:19:44;7.30;99.90
54680;DHT22;40578;53.178;5.846;2022-11-15T00:22:10;7.50;99.90
54680;DHT22;40578;53.178;5.846;2022-11-15T00:24:36;7.20;99.90
54680;DHT22;40578;53.178;5.846;2022-11-15T00:27:02;7.50;99.90
54680;DHT22;40578;53.178;5.846;2022-11-15T00:29:28;7.50;99.90
54680;DHT22;40578;53.178;5.846;2022-11-15T00:31:53;7.20;99.90
54680;DHT22;40578;53.178;5.846;2022-11-15T00:34:19;7.40;99.90
54680;DHT22;40578;53.178;5.846;2022-11-15T00:36:44;7.20;99.90
54680;DHT22;40578;53.178;5.846;2022-11-15T00:39:10;7.20;99.90
54680;DHT22;40578;53.178;5.846;2022-11-15T00:41:36;7.80;99.90
54680;DHT22;40578;53.178;5.846;2022-11-15T00:44:01;7.40;99.90
54680;DHT22;40578;53.178;5.846;2022-11-15T00:46:27;7.50;99.90
54680;DHT22;40578;53.178;5.846;2022-11-15T00:48:53;8.30;99.90
54680;DHT22;40578;53.178;5.846;2022-11-15T00:51:18;7.50;99.90
54680;DHT22;40578;53.178;5.846;2022-11-15T00:53:44;7.30;99.90
54680;DHT22;40578;53.178;5.846;2022-11-15T00:56:09;7.10;99.90
54680;DHT22;40578;53.178;5.846;2022-11-15T00:58:35;7.30;99.90
54680;DHT22;40578;53.178;5.846;2022-11-15T01:01:09;7.10;99.90
54680;DHT22;40578;53.178;5.846;2022-11-15T01:03:36;7.10;99.90
54680;DHT22;40578;53.178;5.846;2022-11-15T01:06:01;7.40;99.90
54680;DHT22;40578;53.178;5.846;2022-11-15T01:08:27;7.10;99.90
54680;DHT22;40578;53.178;5.846;2022-11-15T01:10:52;7.30;99.90
54680;DHT22;40578;53.178;5.846;2022-11-15T01:13:18;7.50;99.90
54680;DHT22;40578;53.178;5.846;2022-11-15T01:15:44;7.60;99.90
54680;DHT22;40578;53.178;5.846;2022-11-15T01:18:09;7.80;99.90
54680;DHT22;40578;53.178;5.846;2022-11-15T01:20:40;7.30;99.90
54680;DHT22;40578;53.178;5.846;2022-11-15T01:23:06;7.00;99.90
54680;DHT22;40578;53.178;5.846;2022-11-15T01:25:31;7.80;99.90
54680;DHT22;40578;53.178;5.846;2022-11-15T01:27:57;7.50;99.90
54680;DHT22;40578;53.178;5.846;2022-11-15T01:30:23;7.50;99.90
54680;DHT22;40578;53.178;5.846;2022-11-15T01:32:48;7.10;99.90
54680;DHT22;40578;53.178;5.846;2022-11-15T01:35:14;7.50;99.90
54680;DHT22;40578;53.178;5.846;2022-11-15T01:37:40;7.00;99.90
54680;DHT22;40578;53.178;5.846;2022-11-15T01:40:05;6.80;99.90
54680;DHT22;40578;53.178;5.846;2022-11-15T01:42:31;7.00;99.90
54680;DHT22;40578;53.178;5.846;2022-11-15T01:44:57;7.00;99.90
54680;DHT22;40578;53.178;5.846;2022-11-15T01:47:36;6.90;99.90
54680;DHT22;40578;53.178;5.846;2022-11-15T01:50:07;6.60;99.90
54680;DHT22;40578;53.178;5.846;2022-11-15T01:52:34;6.90;99.90
54680;DHT22;40578;53.178;5.846;2022-11-15T01:55:05;6.80;99.90
54680;DHT22;40578;53.178;5.846;2022-11-15T01:57:33;6.80;99.90
54680;DHT22;40578;53.178;5.846;2022-11-15T02:00:00;6.50;99.90
54680;DHT22;40578;53.178;5.846;2022-11-15T02:02:27;6.50;99.90
54680;DHT22;40578;53.178;5.846;2022-11-15T02:04:53;6.50;99.90
54680;DHT22;40578;53.178;5.846;2022-11-15T02:07:20;6.50;99.90
54680;DHT22;40578;53.178;5.846;2022-11-15T02:09:46;6.70;99.90
54680;DHT22;40578;53.178;5.846;2022-11-15T02:12:15;6.50;99.90
54680;DHT22;40578;53.178;5.846;2022-11-15T02:14:46;6.30;99.90
54680;DHT22;40578;53.178;5.846;2022-11-15T02:25:57;6.10;99.90
54680;DHT22;40578;53.178;5.846;2022-11-15T02:28:40;6.50;99.90
54680;DHT22;40578;53.178;5.846;2022-11-15T02:34:24;6.40;99.90
54680;DHT22;40578;53.178;5.846;2022-11-15T02:42:30;6.40;99.90
54680;DHT22;40578;53.178;5.846;2022-11-15T02:45:32;6.30;99.90
54680;DHT22;40578;53.178;5.846;2022-11-15T02:48:01;6.40;99.90
54680;DHT22;40578;53.178;5.846;2022-11-15T02:50:30;6.50;99.90
54680;DHT22;40578;53.178;5.846;2022-11-15T02:52:57;6.10;99.90
54680;DHT22;40578;53.178;5.846;2022-11-15T03:00:35;6.50;99.90
54680;DHT22;40578;53.178;5.846;2022-11-15T03:08:32;6.20;99.90
54680;DHT22;40578;53.178;5.846;2022-11-15T03:11:11;6.20;99.90
54680;DHT22;40578;53.178;5.846;2022-11-15T03:13:58;6.20;99.90
54680;DHT22;40578;53.178;5.846;2022-11-15T03:16:38;6.60;99.90
54680;DHT22;40578;53.178;5.846;2022-11-15T03:21:50;6.70;99.90
54680;DHT22;40578;53.178;5.846;2022-11-15T03:24:17;6.20;99.90
54680;DHT22;40578;53.178;5.846;2022-11-15T03:26:45;6.60;99.90
54680;DHT22;40578;53.178;5.846;2022-11-15T03:29:25;6.70;99.90
54680;DHT22;40578;53.178;5.846;2022-11-15T03:31:59;7.00;99.90
54680;DHT22;40578;53.178;5.846;2022-11-15T03:34:57;6.30;99.90
54680;DHT22;40578;53.178;5.846;2022-11-15T03:40:23;6.60;99.90
54680;DHT22;40578;53.178;5.846;2022-11-15T03:43:07;6.70;99.90
54680;DHT22;40578;53.178;5.846;2022-11-15T03:45:50;6.80;99.90
54680;DHT22;40578;53.178;5.846;2022-11-15T03:48:21;6.40;99.90
54680;DHT22;40578;53.178;5.846;2022-11-15T03:50:49;6.90;99.90
54680;DHT22;40578;53.178;5.846;2022-11-15T03:53:15;6.40;99.90
54680;DHT22;40578;53.178;5.846;2022-11-15T03:55:41;6.70;99.90
54680;DHT22;40578;53.178;5.846;2022-11-15T03:58:07;7.20;99.90
54680;DHT22;40578;53.178;5.846;2022-11-15T04:00:32;6.60;99.90
54680;DHT22;40578;53.178;5.846;2022-11-15T04:02:58;6.90;99.90
54680;DHT22;40578;53.178;5.846;2022-11-15T04:05:24;6.80;99.90
54680;DHT22;40578;53.178;5.846;2022-11-15T04:07:49;6.60;99.90
54680;DHT22;40578;53.178;5.846;2022-11-15T04:10:15;6.50;99.90
54680;DHT22;40578;53.178;5.846;2022-11-15T04:12:43;7.10;99.90
54680;DHT22;40578;53.178;5.846;2022-11-15T04:15:20;7.20;99.90
54680;DHT22;40578;53.178;5.846;2022-11-15T04:17:48;6.50;99.90
54680;DHT22;40578;53.178;5.846;2022-11-15T04:20:20;6.60;99.90
54680;DHT22;40578;53.178;5.846;2022-11-15T04:23:10;6.90;99.90
54680;DHT22;40578;53.178;5.846;2022-11-15T04:25:57;7.20;99.90
54680;DHT22;40578;53.178;5.846;2022-11-15T04:28:23;7.00;99.90
54680;DHT22;40578;53.178;5.846;2022-11-15T04:30:49;7.30;99.90
54680;DHT22;40578;53.178;5.846;2022-11-15T04:33:15;7.20;99.90
54680;DHT22;40578;53.178;5.846;2022-11-15T04:35:42;6.80;99.90
54680;DHT22;40578;53.178;5.846;2022-11-15T04:38:09;7.00;99.90
54680;DHT22;40578;53.178;5.846;2022-11-15T04:40:36;6.80;99.90
54680;DHT22;40578;53.178;5.846;2022-11-15T04:43:02;6.70;99.90
54680;DHT22;40578;53.178;5.846;2022-11-15T04:45:27;7.40;99.90
54680;DHT22;40578;53.178;5.846;2022-11-15T04:47:53;6.80;99.90
54680;DHT22;40578;53.178;5.846;2022-11-15T04:50:19;6.90;99.90
54680;DHT22;40578;53.178;5.846;2022-11-15T04:52:51;7.40;99.90
54680;DHT22;40578;53.178;5.846;2022-11-15T04:55:16;6.90;99.90
54680;DHT22;40578;53.178;5.846;2022-11-15T04:57:42;7.50;99.90
54680;DHT22;40578;53.178;5.846;2022-11-15T05:00:11;7.10;99.90
54680;DHT22;40578;53.178;5.846;2022-11-15T05:02:37;6.90;99.90
54680;DHT22;40578;53.178;5.846;2022-11-15T05:05:23;6.90;99.90
54680;DHT22;40578;53.178;5.846;2022-11-15T05:07:49;7.40;99.90
54680;DHT22;40578;53.178;5.846;2022-11-15T05:10:14;7.20;99.90
54680;DHT22;40578;53.178;5.846;2022-11-15T05:12:40;7.00;99.90
54680;DHT22;40578;53.178;5.846;2022-11-15T05:15:06;7.40;99.90
54680;DHT22;40578;53.178;5.846;2022-11-15T05:17:32;7.80;99.90
54680;DHT22;40578;53.178;5.846;2022-11-15T05:19:57;7.20;99.90
54680;DHT22;40578;53.178;5.846;2022-11-15T05:22:23;7.10;99.90
54680;DHT22;40578;53.178;5.846;2022-11-15T05:24:49;7.90;99.90
54680;DHT22;40578;53.178;5.846;2022-11-15T05:27:14;8.10;99.90
54680;DHT22;40578;53.178;5.846;2022-11-15T05:29:40;7.60;99.90
54680;DHT22;40578;53.178;5.846;2022-11-15T05:32:06;7.30;99.90
54680;DHT22;40578;53.178;5.846;2022-11-15T05:34:33;7.30;99.90
54680;DHT22;40578;53.178;5.846;2022-11-15T05:37:00;8.00;99.90
54680;DHT22;40578;53.178;5.846;2022-11-15T05:39:26;8.10;99.90
54680;DHT22;40578;53.178;5.846;2022-11-15T05:42:18;7.50;99.90
54680;DHT22;40578;53.178;5.846;2022-11-15T05:44:47;8.10;99.90
54680;DHT22;40578;53.178;5.846;2022-11-15T05:47:17;7.50;99.90
54680;DHT22;40578;53.178;5.846;2022-11-15T05:49:45;9.50;99.90
54680;DHT22;40578;53.178;5.846;2022-11-15T05:52:13;8.30;99.90
54680;DHT22;40578;53.178;5.846;2022-11-15T05:54:40;7.60;99.90
54680;DHT22;40578;53.178;5.846;2022-11-15T05:57:06;8.40;99.90
54680;DHT22;40578;53.178;5.846;2022-11-15T05:59:32;8.40;99.90
54680;DHT22;40578;53.178;5.846;2022-11-15T06:01:58;8.50;99.90
54680;DHT22;40578;53.178;5.846;2022-11-15T06:04:24;8.70;99.90
54680;DHT22;40578;53.178;5.846;2022-11-15T06:06:50;8.50;99.90
54680;DHT22;40578;53.178;5.846;2022-11-15T06:09:16;8.00;99.90
54680;DHT22;40578;53.178;5.846;2022-11-15T06:11:41;8.60;99.90
54680;DHT22;40578;53.178;5.846;2022-11-15T06:14:07;8.30;99.90
54680;DHT22;40578;53.178;5.846;2022-11-15T06:16:32;8.50;99.90
54680;DHT22;40578;53.178;5.846;2022-11-15T06:18:58;8.20;99.90
54680;DHT22;40578;53.178;5.846;2022-11-15T06:21:24;8.50;99.90
54680;DHT22;40578;53.178;5.846;2022-11-15T06:23:49;8.80;99.90
54680;DHT22;40578;53.178;5.846;2022-11-15T06:26:15;8.40;99.90
54680;DHT22;40578;53.178;5.846;2022-11-15T06:28:40;8.60;99.90
54680;DHT22;40578;53.178;5.846;2022-11-15T06:31:11;9.00;99.90
54680;DHT22;40578;53.178;5.846;2022-11-15T06:33:37;8.20;99.90
54680;DHT22;40578;53.178;5.846;2022-11-15T06:36:05;10.00;99.90
54680;DHT22;40578;53.178;5.846;2022-11-15T06:38:31;8.20;99.90
54680;DHT22;40578;53.178;5.846;2022-11-15T06:41:04;9.10;99.90
54680;DHT22;40578;53.178;5.846;2022-11-15T06:43:30;8.30;99.90
54680;DHT22;40578;53.178;5.846;2022-11-15T06:45:58;8.60;99.90
54680;DHT22;40578;53.178;5.846;2022-11-15T06:48:24;8.60;99.90
54680;DHT22;40578;53.178;5.846;2022-11-15T06:50:57;8.40;99.90
54680;DHT22;40578;53.178;5.846;2022-11-15T06:53:23;8.30;99.90
54680;DHT22;40578;53.178;5.846;2022-11-15T06:55:49;8.60;99.90
54680;DHT22;40578;53.178;5.846;2022-11-15T06:58:14;9.20;99.90
54680;DHT22;40578;53.178;5.846;2022-11-15T07:00:40;9.40;99.90
54680;DHT22;40578;53.178;5.846;2022-11-15T07:03:06;9.30;99.90
54680;DHT22;40578;53.178;5.846;2022-11-15T07:05:32;8.40;99.90
54680;DHT22;40578;53.178;5.846;2022-11-15T07:07:58;9.00;99.90
54680;DHT22;40578;53.178;5.846;2022-11-15T07:10:24;9.20;99.90
54680;DHT22;40578;53.178;5.846;2022-11-15T07:12:51;9.30;99.90
54680;DHT22;40578;53.178;5.846;2022-11-15T07:15:17;9.10;99.90
54680;DHT22;40578;53.178;5.846;2022-11-15T07:17:43;9.50;99.90
54680;DHT22;40578;53.178;5.846;2022-11-15T07:20:10;8.70;99.90
54680;DHT22;40578;53.178;5.846;2022-11-15T07:22:36;8.50;99.90
54680;DHT22;40578;53.178;5.846;2022-11-15T07:25:01;8.80;99.90
54680;DHT22;40578;53.178;5.846;2022-11-15T07:27:27;8.70;99.90
54680;DHT22;40578;53.178;5.846;2022-11-15T07:29:52;9.60;99.90
54680;DHT22;40578;53.178;5.846;2022-11-15T07:32:18;8.60;99.90
54680;DHT22;40578;53.178;5.846;2022-11-15T07:34:44;9.30;99.90
54680;DHT22;40578;53.178;5.846;2022-11-15T07:37:11;9.20;99.90
54680;DHT22;40578;53.178;5.846;2022-11-15T07:39:37;9.80;99.90
54680;DHT22;40578;53.178;5.846;2022-11-15T07:42:02;9.50;99.90
54680;DHT22;40578;53.178;5.846;2022-11-15T07:44:46;9.10;99.90
54680;DHT22;40578;53.178;5.846;2022-11-15T07:47:12;8.80;99.90
54680;DHT22;40578;53.178;5.846;2022-11-15T07:49:38;8.80;99.90
54680;DHT22;40578;53.178;5.846;2022-11-15T07:52:03;8.90;99.90
54680;DHT22;40578;53.178;5.846;2022-11-15T07:54:29;9.80;99.90
54680;DHT22;40578;53.178;5.846;2022-11-15T07:56:55;9.50;99.90
54680;DHT22;40578;53.178;5.846;2022-11-15T07:59:20;9.30;99.90
54680;DHT22;40578;53.178;5.846;2022-11-15T08:01:46;8.80;99.90
54680;DHT22;40578;53.178;5.846;2022-11-15T08:04:12;8.80;99.90
54680;DHT22;40578;53.178;5.846;2022-11-15T08:06:37;8.90;99.90
54680;DHT22;40578;53.178;5.846;2022-11-15T08:09:03;9.20;99.90
54680;DHT22;40578;53.178;5.846;2022-11-15T08:11:29;10.10;99.90
54680;DHT22;40578;53.178;5.846;2022-11-15T08:13:55;9.20;99.90
54680;DHT22;40578;53.178;5.846;2022-11-15T08:16:20;9.00;99.90
54680;DHT22;40578;53.178;5.846;2022-11-15T08:18:46;10.10;99.90
54680;DHT22;40578;53.178;5.846;2022-11-15T08:21:16;9.30;99.90
54680;DHT22;40578;53.178;5.846;2022-11-15T08:23:43;9.80;99.90
54680;DHT22;40578;53.178;5.846;2022-11-15T08:26:09;9.50;99.90
54680;DHT22;40578;53.178;5.846;2022-11-15T08:28:34;10.30;99.90
54680;DHT22;40578;53.178;5.846;2022-11-15T08:31:01;9.50;99.90
54680;DHT22;40578;53.178;5.846;2022-11-15T08:33:27;10.40;99.90
54680;DHT22;40578;53.178;5.846;2022-11-15T08:35:59;9.30;99.90
54680;DHT22;40578;53.178;5.846;2022-11-15T08:38:26;9.60;99.90
54680;DHT22;40578;53.178;5.846;2022-11-15T08:40:58;10.10;99.90
54680;DHT22;40578;53.178;5.846;2022-11-15T08:43:24;10.30;99.90
54680;DHT22;40578;53.178;5.846;2022-11-15T08:45:50;10.70;99.90
54680;DHT22;40578;53.178;5.846;2022-11-15T08:48:15;9.60;99.90
54680;DHT22;40578;53.178;5.846;2022-11-15T08:50:41;10.80;99.90
54680;DHT22;40578;53.178;5.846;2022-11-15T08:53:09;10.10;99.90
54680;DHT22;40578;53.178;5.846;2022-11-15T08:55:38;9.50;99.90
54680;DHT22;40578;53.178;5.846;2022-11-15T08:58:04;9.50;99.90
54680;DHT22;40578;53.178;5.846;2022-11-15T09:00:30;10.80;99.90
54680;DHT22;40578;53.178;5.846;2022-11-15T09:02:55;10.70;99.90
54680;DHT22;40578;53.178;5.846;2022-11-15T09:05:21;10.80;99.90
54680;DHT22;40578;53.178;5.846;2022-11-15T09:07:46;10.70;99.90
54680;DHT22;40578;53.178;5.846;2022-11-15T09:10:12;10.40;99.90
54680;DHT22;40578;53.178;5.846;2022-11-15T09:12:38;10.90;99.90
54680;DHT22;40578;53.178;5.846;2022-11-15T09:15:05;10.90;99.90
54680;DHT22;40578;53.178;5.846;2022-11-15T09:17:31;9.80;99.90
54680;DHT22;40578;53.178;5.846;2022-11-15T09:19:56;9.90;99.90
54680;DHT22;40578;53.178;5.846;2022-11-15T09:22:22;10.60;99.90
54680;DHT22;40578;53.178;5.846;2022-11-15T09:24:48;10.90;99.90
54680;DHT22;40578;53.178;5.846;2022-11-15T09:27:13;10.20;99.90
54680;DHT22;40578;53.178;5.846;2022-11-15T09:29:39;11.00;99.90
54680;DHT22;40578;53.178;5.846;2022-11-15T09:32:05;11.10;99.90
54680;DHT22;40578;53.178;5.846;2022-11-15T09:34:30;9.80;99.90
54680;DHT22;40578;53.178;5.846;2022-11-15T09:36:56;9.80;99.90
54680;DHT22;40578;53.178;5.846;2022-11-15T09:39:21;10.70;99.90
54680;DHT22;40578;53.178;5.846;2022-11-15T09:49:58;10.00;99.90
54680;DHT22;40578;53.178;5.846;2022-11-15T09:52:25;11.20;99.90
54680;DHT22;40578;53.178;5.846;2022-11-15T09:54:52;10.10;99.90
54680;DHT22;40578;53.178;5.846;2022-11-15T09:57:30;10.10;99.90
54680;DHT22;40578;53.178;5.846;2022-11-15T10:05:43;11.00;99.90
54680;DHT22;40578;53.178;5.846;2022-11-15T10:08:31;10.00;99.90
54680;DHT22;40578;53.178;5.846;2022-11-15T10:11:19;10.20;99.90
54680;DHT22;40578;53.178;5.846;2022-11-15T10:13:46;10.20;99.90
54680;DHT22;40578;53.178;5.846;2022-11-15T10:24:46;11.50;99.90
54680;DHT22;40578;53.178;5.846;2022-11-15T10:27:17;10.50;99.90
54680;DHT22;40578;53.178;5.846;2022-11-15T10:29:50;11.20;99.90
54680;DHT22;40578;53.178;5.846;2022-11-15T10:32:18;10.60;99.90
54680;DHT22;40578;53.178;5.846;2022-11-15T10:34:44;10.80;99.90
54680;DHT22;40578;53.178;5.846;2022-11-15T10:37:10;10.60;99.90
54680;DHT22;40578;53.178;5.846;2022-11-15T10:39:35;11.70;99.90
54680;DHT22;40578;53.178;5.846;2022-11-15T10:42:26;11.60;99.90
54680;DHT22;40578;53.178;5.846;2022-11-15T10:44:52;11.70;99.90
54680;DHT22;40578;53.178;5.846;2022-11-15T10:47:26;12.30;99.90
54680;DHT22;40578;53.178;5.846;2022-11-15T10:50:00;11.70;99.90
54680;DHT22;40578;53.178;5.846;2022-11-15T10:52:27;11.80;99.90
54680;DHT22;40578;53.178;5.846;2022-11-15T10:57:24;11.60;99.90
54680;DHT22;40578;53.178;5.846;2022-11-15T11:00:05;11.40;99.90
54680;DHT22;40578;53.178;5.846;2022-11-15T11:02:41;10.80;99.90
54680;DHT22;40578;53.178;5.846;2022-11-15T11:05:36;11.20;99.90
54680;DHT22;40578;53.178;5.846;2022-11-15T11:08:25;11.40;99.90
54680;DHT22;40578;53.178;5.846;2022-11-15T11:10:55;11.70;99.90
54680;DHT22;40578;53.178;5.846;2022-11-15T11:13:30;11.40;99.90
54680;DHT22;40578;53.178;5.846;2022-11-15T11:19:02;11.40;99.90
54680;DHT22;40578;53.178;5.846;2022-11-15T11:21:47;11.90;99.90
54680;DHT22;40578;53.178;5.846;2022-11-15T11:27:22;11.10;99.90
54680;DHT22;40578;53.178;5.846;2022-11-15T11:30:06;11.30;99.90
54680;DHT22;40578;53.178;5.846;2022-11-15T11:35:20;11.80;99.90
54680;DHT22;40578;53.178;5.846;2022-11-15T11:37:52;11.90;99.90
54680;DHT22;40578;53.178;5.846;2022-11-15T11:40:35;11.30;99.90
54680;DHT22;40578;53.178;5.846;2022-11-15T11:43:34;11.80;99.90
54680;DHT22;40578;53.178;5.846;2022-11-15T11:48:47;11.80;99.90
54680;DHT22;40578;53.178;5.846;2022-11-15T11:51:41;11.40;99.90
54680;DHT22;40578;53.178;5.846;2022-11-15T11:54:25;11.60;99.90
54680;DHT22;40578;53.178;5.846;2022-11-15T11:56:53;11.20;99.90
54680;DHT22;40578;53.178;5.846;2022-11-15T12:01:48;12.00;99.90
54680;DHT22;40578;53.178;5.846;2022-11-15T12:09:32;11.80;99.90
54680;DHT22;40578;53.178;5.846;2022-11-15T12:12:18;11.60;99.90
54680;DHT22;40578;53.178;5.846;2022-11-15T12:14:53;12.00;99.90
54680;DHT22;40578;53.178;5.846;2022-11-15T12:17:23;11.70;99.90
54680;DHT22;40578;53.178;5.846;2022-11-15T12:19:49;12.20;99.90
54680;DHT22;40578;53.178;5.846;2022-11-15T12:22:38;11.80;99.90
54680;DHT22;40578;53.178;5.846;2022-11-15T12:27:56;12.00;99.90
54680;DHT22;40578;53.178;5.846;2022-11-15T12:30:38;11.80;99.90
54680;DHT22;40578;53.178;5.846;2022-11-15T12:33:09;11.80;99.90
54680;DHT22;40578;53.178;5.846;2022-11-15T12:35:59;11.70;99.90
54680;DHT22;40578;53.178;5.846;2022-11-15T12:38:57;12.40;99.90
54680;DHT22;40578;53.178;5.846;2022-11-15T12:41:28;11.90;99.90
54680;DHT22;40578;53.178;5.846;2022-11-15T12:43:55;12.10;99.90
54680;DHT22;40578;53.178;5.846;2022-11-15T12:49:08;12.40;99.90
54680;DHT22;40578;53.178;5.846;2022-11-15T12:54:49;12.40;60.30
54680;DHT22;40578;53.178;5.846;2022-11-15T12:59:54;12.10;1.00
54680;DHT22;40578;53.178;5.846;2022-11-15T13:02:26;12.00;99.90
54680;DHT22;40578;53.178;5.846;2022-11-15T13:04:54;12.10;99.90
54680;DHT22;40578;53.178;5.846;2022-11-15T13:17:39;12.10;99.90
54680;DHT22;40578;53.178;5.846;2022-11-15T13:20:15;12.40;99.90
54680;DHT22;40578;53.178;5.846;2022-11-15T13:22:44;12.10;99.90
54680;DHT22;40578;53.178;5.846;2022-11-15T13:28:11;11.80;99.90
54680;DHT22;40578;53.178;5.846;2022-11-15T13:30:54;12.10;99.90
54680;DHT22;40578;53.178;5.846;2022-11-15T13:33:24;12.20;99.90
54680;DHT22;40578;53.178;5.846;2022-11-15T13:36:03;11.70;99.90
54680;DHT22;40578;53.178;5.846;2022-11-15T13:38:36;11.60;99.90
54680;DHT22;40578;53.178;5.846;2022-11-15T13:41:33;11.50;99.90
54680;DHT22;40578;53.178;5.846;2022-11-15T13:44:00;11.60;99.90
54680;DHT22;40578;53.178;5.846;2022-11-15T13:46:33;11.60;1.00
54680;DHT22;40578;53.178;5.846;2022-11-15T13:49:05;11.80;1.00
54680;DHT22;40578;53.178;5.846;2022-11-15T13:51:47;11.80;1.00
54680;DHT22;40578;53.178;5.846;2022-11-15T13:56:52;11.50;1.00
54680;DHT22;40578;53.178;5.846;2022-11-15T13:59:26;11.70;1.00
54680;DHT22;40578;53.178;5.846;2022-11-15T14:01:54;11.70;1.00
54680;DHT22;40578;53.178;5.846;2022-11-15T14:04:22;11.60;1.00
54680;DHT22;40578;53.178;5.846;2022-11-15T14:06:55;11.50;1.00
54680;DHT22;40578;53.178;5.846;2022-11-15T14:09:30;12.70;1.00
54680;DHT22;40578;53.178;5.846;2022-11-15T14:12:00;11.20;1.00
54680;DHT22;40578;53.178;5.846;2022-11-15T14:14:26;11.40;1.00
54680;DHT22;40578;53.178;5.846;2022-11-15T14:16:58;11.60;1.00
54680;DHT22;40578;53.178;5.846;2022-11-15T14:24:34;11.10;12.40
54680;DHT22;40578;53.178;5.846;2022-11-15T14:27:17;11.20;22.20
54680;DHT22;40578;53.178;5.846;2022-11-15T14:29:43;10.90;45.00
54680;DHT22;40578;53.178;5.846;2022-11-15T14:34:38;11.00;62.60
54680;DHT22;40578;53.178;5.846;2022-11-15T14:37:04;11.10;78.60
54680;DHT22;40578;53.178;5.846;2022-11-15T14:39:30;10.80;80.30
54680;DHT22;40578;53.178;5.846;2022-11-15T14:41:55;10.80;75.40
54680;DHT22;40578;53.178;5.846;2022-11-15T14:44:21;10.90;80.00
54680;DHT22;40578;53.178;5.846;2022-11-15T14:46:47;10.90;66.60
54680;DHT22;40578;53.178;5.846;2022-11-15T14:49:13;10.70;50.70
54680;DHT22;40578;53.178;5.846;2022-11-15T14:51:41;10.60;1.00
54680;DHT22;40578;53.178;5.846;2022-11-15T14:54:10;10.60;1.00
54680;DHT22;40578;53.178;5.846;2022-11-15T14:56:35;10.60;1.00
54680;DHT22;40578;53.178;5.846;2022-11-15T14:59:01;10.60;1.00
54680;DHT22;40578;53.178;5.846;2022-11-15T15:01:27;10.50;1.00
54680;DHT22;40578;53.178;5.846;2022-11-15T15:03:53;10.50;2.70
54680;DHT22;40578;53.178;5.846;2022-11-15T15:06:23;10.60;22.80
54680;DHT22;40578;53.178;5.846;2022-11-15T15:08:49;10.40;35.00
54680;DHT22;40578;53.178;5.846;2022-11-15T15:11:27;10.40;26.10
54680;DHT22;40578;53.178;5.846;2022-11-15T15:13:54;10.40;22.60
54680;DHT22;40578;53.178;5.846;2022-11-15T15:16:23;10.40;10.50
54680;DHT22;40578;53.178;5.846;2022-11-15T15:18:49;10.40;9.80
54680;DHT22;40578;53.178;5.846;2022-11-15T15:21:25;10.70;6.90
54680;DHT22;40578;53.178;5.846;2022-11-15T15:23:52;10.30;7.20
54680;DHT22;40578;53.178;5.846;2022-11-15T15:26:22;10.50;1.80
54680;DHT22;40578;53.178;5.846;2022-11-15T15:28:48;10.30;1.00
54680;DHT22;40578;53.178;5.846;2022-11-15T15:31:14;10.20;1.00
54680;DHT22;40578;53.178;5.846;2022-11-15T15:33:40;10.10;1.00
54680;DHT22;40578;53.178;5.846;2022-11-15T15:36:13;10.20;1.00
54680;DHT22;40578;53.178;5.846;2022-11-15T15:38:39;10.10;1.00
54680;DHT22;40578;53.178;5.846;2022-11-15T15:41:13;10.20;1.00
54680;DHT22;40578;53.178;5.846;2022-11-15T15:43:39;10.00;1.00
54680;DHT22;40578;53.178;5.846;2022-11-15T15:46:12;10.20;1.00
54680;DHT22;40578;53.178;5.846;2022-11-15T15:48:38;10.00;1.00
54680;DHT22;40578;53.178;5.846;2022-11-15T15:51:05;10.00;1.00
54680;DHT22;40578;53.178;5.846;2022-11-15T15:53:31;9.90;1.00
54680;DHT22;40578;53.178;5.846;2022-11-15T15:55:57;9.90;1.00
54680;DHT22;40578;53.178;5.846;2022-11-15T15:58:22;9.80;1.00
54680;DHT22;40578;53.178;5.846;2022-11-15T16:00:48;9.90;1.00
54680;DHT22;40578;53.178;5.846;2022-11-15T16:03:13;9.90;1.00
54680;DHT22;40578;53.178;5.846;2022-11-15T16:05:39;9.90;1.00
54680;DHT22;40578;53.178;5.846;2022-11-15T16:08:05;9.90;1.00
54680;DHT22;40578;53.178;5.846;2022-11-15T16:10:34;9.90;1.00
54680;DHT22;40578;53.178;5.846;2022-11-15T16:13:03;9.90;1.00
54680;DHT22;40578;53.178;5.846;2022-11-15T16:15:30;9.90;1.00
54680;DHT22;40578;53.178;5.846;2022-11-15T16:17:58;9.90;1.00
54680;DHT22;40578;53.178;5.846;2022-11-15T16:20:40;10.00;1.00
54680;DHT22;40578;53.178;5.846;2022-11-15T16:23:10;9.90;1.00
54680;DHT22;40578;53.178;5.846;2022-11-15T16:28:36;10.10;1.00
54680;DHT22;40578;53.178;5.846;2022-11-15T16:31:10;10.20;1.00
54680;DHT22;40578;53.178;5.846;2022-11-15T16:33:36;10.10;1.00
54680;DHT22;40578;53.178;5.846;2022-11-15T16:36:04;10.10;1.00
54680;DHT22;40578;53.178;5.846;2022-11-15T16:38:30;10.20;1.00
54680;DHT22;40578;53.178;5.846;2022-11-15T16:40:56;10.30;1.00
54680;DHT22;40578;53.178;5.846;2022-11-15T16:43:21;10.30;1.00
54680;DHT22;40578;53.178;5.846;2022-11-15T16:45:49;10.30;1.00
54680;DHT22;40578;53.178;5.846;2022-11-15T16:48:21;10.30;1.00
54680;DHT22;40578;53.178;5.846;2022-11-15T16:50:47;10.30;1.00
54680;DHT22;40578;53.178;5.846;2022-11-15T16:53:13;10.30;1.00
54680;DHT22;40578;53.178;5.846;2022-11-15T16:55:39;10.40;1.00
54680;DHT22;40578;53.178;5.846;2022-11-15T16:58:04;10.50;1.00
54680;DHT22;40578;53.178;5.846;2022-11-15T17:00:30;10.40;1.00
54680;DHT22;40578;53.178;5.846;2022-11-15T17:02:56;10.50;1.00
54680;DHT22;40578;53.178;5.846;2022-11-15T17:05:23;11.50;99.90
54680;DHT22;40578;53.178;5.846;2022-11-15T17:07:52;10.50;99.90
54680;DHT22;40578;53.178;5.846;2022-11-15T17:10:22;10.50;99.90
54680;DHT22;40578;53.178;5.846;2022-11-15T17:12:49;10.60;99.90
54680;DHT22;40578;53.178;5.846;2022-11-15T17:15:15;10.50;99.90
54680;DHT22;40578;53.178;5.846;2022-11-15T17:17:42;10.60;99.90
54680;DHT22;40578;53.178;5.846;2022-11-15T17:20:14;10.60;99.90
54680;DHT22;40578;53.178;5.846;2022-11-15T17:22:40;10.50;99.90
54680;DHT22;40578;53.178;5.846;2022-11-15T17:25:06;10.60;99.90
54680;DHT22;40578;53.178;5.846;2022-11-15T17:27:32;10.60;99.20
54680;DHT22;40578;53.178;5.846;2022-11-15T17:29:57;10.50;99.90
54680;DHT22;40578;53.178;5.846;2022-11-15T17:32:23;10.70;71.40
54680;DHT22;40578;53.178;5.846;2022-11-15T17:34:48;10.60;59.00
54680;DHT22;40578;53.178;5.846;2022-11-15T17:37:14;10.80;22.80
54680;DHT22;40578;53.178;5.846;2022-11-15T17:39:40;10.60;1.00
54680;DHT22;40578;53.178;5.846;2022-11-15T17:42:05;10.60;1.00
54680;DHT22;40578;53.178;5.846;2022-11-15T17:44:31;10.70;1.00
54680;DHT22;40578;53.178;5.846;2022-11-15T17:46:57;11.80;1.00
54680;DHT22;40578;53.178;5.846;2022-11-15T17:49:23;10.70;1.00